Time;durP1;ratioP1;P1;durP2;ratioP2;P2;SDS_P1;SDS_P2;PMS_P1;PMS_P2;Temp;Humidity;BMP_temperature;BMP_pressure;BME280_temperature;BME280_humidity;BME280_pressure;Samples;Min_cycle;Max_cycle;Signal;HPM_P1;HPM_P2
2023/11/09 00:00:41;;;;;;;3.13;2.05;;;5.70;99.90;;;;;;5017849;28;20112;-73
2023/11/09 00:03:10;;;;;;;5.90;1.92;;;5.60;99.90;;;;;;5017804;28;20047;-72
2023/11/09 00:05:35;;;;;;;6.57;2.03;;;5.70;99.90;;;;;;5014438;28;20028;-74
2023/11/09 00:08:01;;;;;;;3.67;2.03;;;5.60;99.90;;;;;;5017680;28;20409;-73
2023/11/09 00:10:26;;;;;;;5.22;1.50;;;5.60;99.90;;;;;;5012404;28;20061;-73
2023/11/09 00:12:53;;;;;;;4.32;2.05;;;5.60;99.90;;;;;;5012829;28;20033;-74
2023/11/09 00:15:22;;;;;;;4.82;1.92;;;5.60;99.90;;;;;;5013569;28;20049;-73
2023/11/09 00:17:48;;;;;;;2.53;1.58;;;5.60;99.90;;;;;;5016610;28;20048;-73
2023/11/09 00:20:17;;;;;;;6.40;1.83;;;5.50;99.90;;;;;;5014204;28;20075;-73
2023/11/09 00:22:46;;;;;;;2.88;1.50;;;5.50;99.90;;;;;;5013305;28;20022;-72
2023/11/09 00:25:12;;;;;;;4.85;2.20;;;5.60;99.90;;;;;;5017479;28;20056;-71
2023/11/09 00:27:37;;;;;;;3.20;2.08;;;5.50;99.90;;;;;;5015251;28;20067;-74
2023/11/09 00:30:03;;;;;;;4.32;1.55;;;5.50;99.90;;;;;;5018389;28;20038;-74
2023/11/09 00:32:29;;;;;;;2.53;1.85;;;5.50;99.90;;;;;;5014530;28;20018;-74
2023/11/09 00:34:55;;;;;;;2.17;1.60;;;5.50;99.90;;;;;;5014617;28;20044;-74
2023/11/09 00:37:22;;;;;;;5.28;1.73;;;5.50;99.90;;;;;;5011985;28;20044;-74
2023/11/09 00:39:47;;;;;;;2.50;1.75;;;5.50;99.90;;;;;;5016884;28;20029;-73
2023/11/09 00:42:15;;;;;;;5.40;2.65;;;5.60;99.90;;;;;;5018834;28;20417;-75
2023/11/09 00:44:41;;;;;;;5.78;1.92;;;5.60;99.90;;;;;;5012641;28;20653;-74
2023/11/09 00:47:07;;;;;;;5.25;2.03;;;5.60;99.90;;;;;;5018131;28;20060;-74
2023/11/09 00:49:32;;;;;;;5.65;1.83;;;5.60;99.90;;;;;;5015507;28;20494;-74
2023/11/09 00:51:58;;;;;;;4.43;1.80;;;5.60;99.90;;;;;;5021306;28;20498;-73
2023/11/09 00:54:23;;;;;;;2.13;1.63;;;5.60;99.90;;;;;;5012707;28;20060;-74
2023/11/09 00:56:49;;;;;;;4.15;2.10;;;5.70;99.90;;;;;;5017096;28;20033;-74
2023/11/09 00:59:14;;;;;;;3.55;1.67;;;5.80;99.90;;;;;;5016658;28;20027;-74
2023/11/09 01:01:40;;;;;;;3.97;2.13;;;5.80;99.90;;;;;;5012631;28;20021;-73
2023/11/09 01:04:05;;;;;;;5.10;2.20;;;5.80;99.90;;;;;;5015208;28;20117;-74
2023/11/09 01:06:32;;;;;;;6.63;2.03;;;5.90;99.90;;;;;;5016644;28;20148;-74
2023/11/09 01:08:58;;;;;;;4.13;2.00;;;5.90;99.90;;;;;;5011587;28;20025;-73
2023/11/09 01:11:24;;;;;;;4.35;1.60;;;5.90;99.90;;;;;;5013530;28;20021;-74
2023/11/09 01:13:52;;;;;;;5.22;1.70;;;6.00;99.90;;;;;;5016270;28;20397;-74
2023/11/09 01:16:18;;;;;;;2.83;1.40;;;6.00;99.90;;;;;;5011886;28;20052;-74
2023/11/09 01:18:43;;;;;;;3.83;1.52;;;5.90;99.90;;;;;;5014027;28;20192;-74
2023/11/09 01:21:09;;;;;;;4.03;1.88;;;5.90;99.90;;;;;;5014394;28;20037;-75
2023/11/09 01:23:35;;;;;;;5.63;2.15;;;5.90;99.90;;;;;;5012373;28;20026;-74
2023/11/09 01:26:00;;;;;;;3.80;1.80;;;5.90;99.90;;;;;;5013697;28;20041;-75
2023/11/09 01:28:26;;;;;;;4.35;2.30;;;6.00;99.90;;;;;;5012682;28;20095;-75
2023/11/09 01:30:51;;;;;;;3.92;1.73;;;6.00;99.90;;;;;;5019212;28;20055;-75
2023/11/09 01:33:17;;;;;;;2.60;1.80;;;6.00;99.90;;;;;;5016451;28;20338;-75
2023/11/09 01:35:42;;;;;;;3.42;1.60;;;6.00;99.90;;;;;;5010108;28;20449;-74
2023/11/09 01:38:08;;;;;;;3.60;2.00;;;6.00;99.90;;;;;;5006415;28;20593;-75
2023/11/09 01:40:34;;;;;;;3.20;1.70;;;6.00;99.90;;;;;;5015675;28;20039;-75
2023/11/09 01:42:59;;;;;;;3.17;1.85;;;6.00;99.90;;;;;;5014206;28;20026;-74
2023/11/09 01:45:25;;;;;;;2.30;1.63;;;6.00;99.90;;;;;;5015767;28;20033;-75
2023/11/09 01:47:53;;;;;;;7.38;2.08;;;5.90;99.90;;;;;;5011721;28;20120;-75
2023/11/09 01:50:18;;;;;;;9.25;2.00;;;6.00;99.90;;;;;;5014213;28;20447;-74
2023/11/09 01:52:44;;;;;;;6.13;2.00;;;6.00;99.90;;;;;;5005126;28;20037;-74
2023/11/09 01:55:13;;;;;;;5.90;1.75;;;6.00;99.90;;;;;;5016038;28;20030;-74
2023/11/09 01:57:41;;;;;;;3.95;1.85;;;6.00;99.90;;;;;;5014179;28;20071;-73
2023/11/09 02:00:10;;;;;;;2.67;1.60;;;6.00;99.90;;;;;;5012622;28;20462;-70
2023/11/09 02:02:36;;;;;;;4.55;1.83;;;6.00;99.90;;;;;;5013611;28;20026;-74
2023/11/09 02:05:02;;;;;;;4.63;1.52;;;6.00;99.90;;;;;;5009290;28;20029;-73
2023/11/09 02:07:28;;;;;;;3.88;1.83;;;6.00;99.90;;;;;;5011221;28;20421;-73
2023/11/09 02:09:55;;;;;;;5.43;2.10;;;6.00;99.90;;;;;;5016399;28;20025;-74
2023/11/09 02:12:21;;;;;;;4.95;1.95;;;6.10;99.90;;;;;;5012823;28;20567;-75
2023/11/09 02:14:47;;;;;;;7.95;1.55;;;6.10;99.90;;;;;;5011384;28;20406;-73
2023/11/09 02:17:13;;;;;;;3.03;1.63;;;6.00;99.90;;;;;;5015378;28;20265;-73
2023/11/09 02:19:38;;;;;;;5.63;2.20;;;6.00;99.90;;;;;;5015593;28;20519;-74
2023/11/09 02:22:05;;;;;;;3.00;1.77;;;6.00;99.90;;;;;;5011498;28;20029;-74
2023/11/09 02:24:30;;;;;;;6.57;1.88;;;6.00;99.90;;;;;;5008774;28;20030;-73
2023/11/09 02:26:57;;;;;;;3.08;2.10;;;6.00;99.90;;;;;;5014209;28;20532;-73
2023/11/09 02:29:24;;;;;;;3.38;1.45;;;6.00;99.90;;;;;;5014125;28;20072;-73
2023/11/09 02:31:50;;;;;;;2.35;1.65;;;6.00;99.90;;;;;;5022264;28;20563;-74
2023/11/09 02:34:19;;;;;;;2.70;1.48;;;6.00;99.90;;;;;;5016408;28;20056;-72
2023/11/09 02:36:45;;;;;;;4.00;1.95;;;6.00;99.90;;;;;;5007466;28;20034;-74
2023/11/09 02:39:12;;;;;;;6.22;1.92;;;6.10;99.90;;;;;;5015767;28;20022;-74
2023/11/09 02:41:38;;;;;;;3.13;1.95;;;6.00;99.90;;;;;;5008977;28;20029;-74
2023/11/09 02:44:04;;;;;;;2.85;1.63;;;6.10;99.90;;;;;;5018046;28;20044;-74
2023/11/09 02:46:30;;;;;;;2.63;1.30;;;6.10;99.90;;;;;;5019335;28;20026;-74
2023/11/09 02:48:56;;;;;;;1.88;1.40;;;6.10;99.90;;;;;;5017517;28;20493;-74
2023/11/09 02:51:21;;;;;;;2.42;1.30;;;6.00;99.90;;;;;;5016495;28;20051;-74
2023/11/09 02:53:46;;;;;;;3.85;1.90;;;6.10;99.90;;;;;;5014909;28;20061;-73
2023/11/09 02:56:12;;;;;;;5.45;1.63;;;6.10;99.90;;;;;;5023655;28;20607;-75
2023/11/09 02:58:38;;;;;;;4.07;1.73;;;6.10;99.90;;;;;;5014133;28;20036;-74
2023/11/09 03:01:03;;;;;;;4.43;1.80;;;6.10;99.90;;;;;;5014463;28;20328;-74
2023/11/09 03:03:29;;;;;;;3.78;1.50;;;6.10;99.90;;;;;;5013851;28;20705;-74
2023/11/09 03:05:55;;;;;;;3.13;1.45;;;6.10;99.90;;;;;;5017324;28;20387;-75
2023/11/09 03:08:22;;;;;;;1.98;1.58;;;6.10;99.90;;;;;;5024464;28;20499;-75
2023/11/09 03:10:48;;;;;;;3.08;1.45;;;6.10;99.90;;;;;;5016066;28;20047;-74
2023/11/09 03:13:19;;;;;;;2.25;1.42;;;6.10;99.90;;;;;;5015485;28;20101;-73
2023/11/09 03:15:46;;;;;;;4.28;1.38;;;6.10;99.90;;;;;;5017653;28;20536;-73
2023/11/09 03:18:11;;;;;;;3.03;1.50;;;6.10;99.90;;;;;;5008863;28;20053;-73
2023/11/09 03:20:37;;;;;;;2.33;1.52;;;6.10;99.90;;;;;;5020948;28;20037;-75
2023/11/09 03:23:02;;;;;;;4.05;1.40;;;6.10;99.90;;;;;;5015737;28;20441;-73
2023/11/09 03:25:28;;;;;;;5.15;1.60;;;6.10;99.90;;;;;;5014452;28;20394;-73
2023/11/09 03:27:54;;;;;;;3.13;1.60;;;6.10;99.90;;;;;;5019131;28;20026;-73
2023/11/09 03:30:20;;;;;;;3.47;1.77;;;6.10;99.90;;;;;;5018270;28;20252;-73
2023/11/09 03:32:46;;;;;;;1.95;1.33;;;6.00;99.90;;;;;;5020925;28;20084;-74
2023/11/09 03:35:13;;;;;;;2.10;1.40;;;6.00;99.90;;;;;;5017997;28;20071;-74
2023/11/09 03:37:39;;;;;;;4.50;1.85;;;5.90;99.90;;;;;;5008476;28;20026;-73
2023/11/09 03:40:07;;;;;;;4.93;1.48;;;5.90;99.90;;;;;;5021937;28;20456;-73
2023/11/09 03:42:33;;;;;;;2.53;1.60;;;5.90;99.90;;;;;;5015365;28;20501;-73
2023/11/09 03:44:59;;;;;;;6.00;1.98;;;5.80;99.90;;;;;;5020277;28;20025;-74
2023/11/09 03:47:25;;;;;;;6.32;1.45;;;5.80;99.90;;;;;;5018506;28;20045;-74
2023/11/09 03:49:50;;;;;;;2.03;1.30;;;5.80;99.90;;;;;;5016730;28;20036;-74
2023/11/09 03:52:16;;;;;;;5.68;1.30;;;5.90;99.90;;;;;;5014770;28;20091;-73
2023/11/09 03:54:41;;;;;;;2.65;1.55;;;5.90;99.90;;;;;;5015322;28;20033;-74
2023/11/09 03:57:07;;;;;;;2.75;1.42;;;5.90;99.90;;;;;;5019813;28;20056;-73
2023/11/09 03:59:33;;;;;;;3.92;1.80;;;6.00;99.90;;;;;;5015844;28;20032;-73
2023/11/09 04:01:59;;;;;;;2.85;1.40;;;6.00;99.90;;;;;;5014992;28;20030;-73
2023/11/09 04:04:24;;;;;;;2.15;1.33;;;6.10;99.90;;;;;;5017402;28;20489;-73
2023/11/09 04:06:50;;;;;;;5.13;1.60;;;6.20;99.90;;;;;;5013485;28;20052;-73
2023/11/09 04:09:16;;;;;;;2.15;1.80;;;6.20;99.90;;;;;;5015808;28;20335;-74
2023/11/09 04:11:41;;;;;;;6.45;2.58;;;6.30;99.90;;;;;;5008096;28;20026;-73
2023/11/09 04:14:10;;;;;;;4.22;1.60;;;6.40;99.90;;;;;;5019274;28;20188;-73
2023/11/09 04:16:35;;;;;;;3.05;2.08;;;6.40;99.90;;;;;;5013568;28;20030;-73
2023/11/09 04:19:01;;;;;;;5.90;2.33;;;6.50;99.90;;;;;;5014936;28;20450;-73
2023/11/09 04:21:27;;;;;;;4.10;2.05;;;6.60;99.90;;;;;;5016081;28;20056;-73
2023/11/09 04:23:52;;;;;;;7.63;1.70;;;6.60;99.90;;;;;;5017201;28;20042;-73
2023/11/09 04:26:18;;;;;;;4.47;1.70;;;6.70;99.90;;;;;;5013132;28;20437;-73
2023/11/09 04:28:43;;;;;;;4.10;1.60;;;6.80;99.90;;;;;;5016363;28;20036;-73
2023/11/09 04:31:09;;;;;;;3.08;1.55;;;6.80;99.90;;;;;;5011237;28;20036;-73
2023/11/09 04:33:35;;;;;;;7.85;1.73;;;6.80;99.90;;;;;;5011788;28;20034;-73
2023/11/09 04:36:05;;;;;;;4.28;1.50;;;6.90;99.90;;;;;;5007387;28;20355;-73
2023/11/09 04:38:38;;;;;;;3.22;1.77;;;6.90;99.90;;;;;;5010357;28;20027;-72
2023/11/09 04:41:15;;;;;;;5.38;1.40;;;6.90;99.90;;;;;;5016090;28;20021;-72
2023/11/09 04:43:42;;;;;;;6.63;1.88;;;6.90;99.90;;;;;;5012894;28;20032;-71
2023/11/09 04:46:11;;;;;;;5.22;1.65;;;7.00;99.90;;;;;;5016981;28;20021;-71
2023/11/09 04:48:44;;;;;;;7.00;1.70;;;7.10;99.90;;;;;;5014515;28;20514;-72
2023/11/09 04:51:20;;;;;;;3.72;1.35;;;7.10;99.90;;;;;;5014710;28;20025;-72
2023/11/09 04:53:48;;;;;;;3.90;1.40;;;7.10;99.90;;;;;;5015545;28;20022;-73
2023/11/09 04:56:30;;;;;;;3.53;1.50;;;7.20;99.90;;;;;;5014947;28;20083;-72
2023/11/09 04:59:02;;;;;;;2.67;1.40;;;7.20;99.90;;;;;;5011214;28;20017;-72
2023/11/09 05:06:58;;;;;;;3.40;1.17;;;7.50;99.90;;;;;;5010123;28;19920;-72
2023/11/09 05:09:25;;;;;;;3.30;1.17;;;7.50;99.90;;;;;;5012811;28;20109;-72
2023/11/09 05:11:52;;;;;;;1.58;1.17;;;7.60;99.90;;;;;;5016862;28;20421;-72
2023/11/09 05:14:18;;;;;;;3.08;1.10;;;7.60;99.90;;;;;;5002183;28;20033;-73
2023/11/09 05:16:43;;;;;;;1.30;1.10;;;7.60;99.90;;;;;;5013321;28;20556;-66
2023/11/09 05:19:10;;;;;;;3.60;1.33;;;7.70;99.90;;;;;;5015404;28;20025;-58
2023/11/09 05:21:37;;;;;;;2.35;1.40;;;7.70;99.90;;;;;;5020595;28;20462;-62
2023/11/09 05:24:03;;;;;;;1.70;1.00;;;7.70;99.90;;;;;;5015006;28;20014;-63
2023/11/09 05:26:32;;;;;;;3.40;1.10;;;7.70;99.90;;;;;;5009135;28;20024;-63
2023/11/09 05:28:57;;;;;;;4.07;1.40;;;7.80;99.90;;;;;;5016020;28;20033;-62
2023/11/09 05:31:23;;;;;;;7.80;1.35;;;7.70;99.90;;;;;;5018216;28;20051;-63
2023/11/09 05:33:53;;;;;;;3.50;1.27;;;7.80;99.90;;;;;;5008152;28;20032;-63
2023/11/09 05:36:21;;;;;;;2.13;1.20;;;7.80;99.90;;;;;;5006631;28;21079;-63
2023/11/09 05:38:47;;;;;;;1.95;1.17;;;7.80;99.90;;;;;;5013310;28;20935;-63
2023/11/09 05:41:14;;;;;;;2.53;1.10;;;7.80;99.90;;;;;;5019213;28;20454;-62
2023/11/09 05:43:40;;;;;;;5.35;1.02;;;7.80;99.90;;;;;;5011765;28;20026;-62
2023/11/09 05:46:05;;;;;;;2.00;1.20;;;7.80;99.90;;;;;;5014707;28;20040;-63
2023/11/09 05:48:32;;;;;;;2.92;1.00;;;7.80;99.90;;;;;;5017145;28;20077;-62
2023/11/09 05:50:57;;;;;;;2.10;1.10;;;7.80;99.90;;;;;;5011819;28;20655;-63
2023/11/09 05:53:22;;;;;;;2.08;0.90;;;7.80;99.90;;;;;;5017656;28;20112;-63
2023/11/09 05:55:49;;;;;;;3.78;1.20;;;7.80;99.90;;;;;;5011706;28;20512;-63
2023/11/09 05:58:15;;;;;;;5.20;0.98;;;7.80;99.90;;;;;;5013104;28;20029;-63
2023/11/09 06:00:41;;;;;;;2.17;1.20;;;7.90;99.90;;;;;;5013314;28;20036;-63
2023/11/09 06:03:07;;;;;;;3.75;1.20;;;7.90;99.90;;;;;;5012370;28;20462;-63
2023/11/09 06:05:32;;;;;;;4.57;1.40;;;7.90;99.90;;;;;;5013031;28;20033;-63
2023/11/09 06:07:58;;;;;;;1.45;1.15;;;7.90;99.90;;;;;;5011680;28;20108;-63
2023/11/09 06:10:25;;;;;;;3.20;1.52;;;7.90;99.90;;;;;;5019522;28;20041;-63
2023/11/09 06:12:50;;;;;;;2.80;1.45;;;8.00;99.90;;;;;;5017631;28;20033;-63
2023/11/09 06:15:16;;;;;;;3.35;1.23;;;8.00;99.90;;;;;;5013083;28;20033;-63
2023/11/09 06:17:43;;;;;;;3.85;1.10;;;8.00;99.90;;;;;;5013152;28;20087;-63
2023/11/09 06:20:13;;;;;;;4.47;1.35;;;8.00;99.90;;;;;;5011860;28;20028;-63
2023/11/09 06:22:43;;;;;;;1.55;0.82;;;8.10;99.90;;;;;;5013124;28;20030;-63
2023/11/09 06:25:10;;;;;;;2.25;1.10;;;8.10;99.90;;;;;;5013237;28;20029;-63
2023/11/09 06:27:36;;;;;;;2.00;1.73;;;8.10;99.90;;;;;;5011927;28;20034;-63
2023/11/09 06:30:03;;;;;;;1.85;1.15;;;8.10;99.90;;;;;;5014576;28;20029;-62
2023/11/09 06:32:30;;;;;;;1.55;1.10;;;8.10;99.90;;;;;;5010953;28;20019;-63
2023/11/09 06:34:55;;;;;;;3.72;1.13;;;8.10;99.90;;;;;;5012653;28;20101;-62
2023/11/09 06:37:22;;;;;;;2.03;0.93;;;8.10;98.80;;;;;;5002810;28;20121;-63
2023/11/09 06:39:49;;;;;;;1.42;0.90;;;8.20;98.80;;;;;;5009923;28;20024;-62
2023/11/09 06:42:17;;;;;;;1.75;1.27;;;8.20;99.00;;;;;;5013111;28;20140;-63
2023/11/09 06:44:46;;;;;;;5.50;0.93;;;8.20;98.80;;;;;;5003850;28;20034;-63
2023/11/09 06:47:11;;;;;;;1.25;0.90;;;8.30;98.10;;;;;;5013669;28;20087;-63
2023/11/09 06:49:37;;;;;;;4.05;1.30;;;8.30;98.10;;;;;;5010701;28;20033;-63
2023/11/09 06:52:05;;;;;;;3.67;1.10;;;8.30;97.90;;;;;;5012550;28;20068;-62
2023/11/09 06:54:32;;;;;;;4.93;1.08;;;8.30;98.20;;;;;;5013636;28;20095;-62
2023/11/09 06:56:58;;;;;;;3.22;1.20;;;8.40;98.00;;;;;;5014759;28;20394;-63
2023/11/09 06:59:24;;;;;;;2.33;1.10;;;8.40;97.80;;;;;;5009897;28;20044;-63
2023/11/09 07:01:49;;;;;;;4.00;1.27;;;8.40;97.20;;;;;;5011469;28;20022;-63
2023/11/09 07:04:16;;;;;;;2.15;1.02;;;8.50;96.70;;;;;;5018767;28;20363;-63
2023/11/09 07:06:43;;;;;;;2.95;1.27;;;8.50;96.10;;;;;;5010630;28;20029;-64
2023/11/09 07:09:09;;;;;;;2.08;1.17;;;8.60;95.70;;;;;;5012403;28;20135;-63
2023/11/09 07:11:35;;;;;;;4.05;1.00;;;8.60;96.30;;;;;;5013451;28;20057;-62
2023/11/09 07:14:01;;;;;;;1.83;1.10;;;8.70;95.70;;;;;;5010855;28;20032;-63
2023/11/09 07:16:26;;;;;;;3.35;1.00;;;8.70;95.80;;;;;;5015375;28;20096;-63
2023/11/09 07:18:52;;;;;;;2.40;1.17;;;8.80;95.10;;;;;;5013464;28;20463;-62
2023/11/09 07:21:20;;;;;;;2.33;1.20;;;8.80;95.20;;;;;;5015448;28;20100;-63
2023/11/09 07:23:47;;;;;;;1.67;1.00;;;8.90;94.40;;;;;;5017393;28;20068;-62
2023/11/09 07:26:17;;;;;;;2.42;0.90;;;9.00;94.30;;;;;;5014021;28;20080;-64
2023/11/09 07:28:43;;;;;;;1.85;1.20;;;9.00;94.40;;;;;;5015970;28;20040;-63
2023/11/09 07:31:08;;;;;;;4.28;1.00;;;9.10;94.10;;;;;;5016256;28;20528;-63
2023/11/09 07:33:34;;;;;;;3.42;1.27;;;9.20;94.20;;;;;;5018635;28;20084;-63
2023/11/09 07:35:59;;;;;;;1.92;1.15;;;9.20;93.50;;;;;;5009335;28;20522;-63
2023/11/09 07:38:26;;;;;;;1.27;1.10;;;9.30;93.00;;;;;;5021812;28;20033;-63
2023/11/09 07:40:52;;;;;;;3.30;0.93;;;9.40;92.40;;;;;;5017925;28;20500;-62
2023/11/09 07:43:18;;;;;;;5.20;1.65;;;9.40;92.60;;;;;;5015587;28;20485;-62
2023/11/09 07:45:44;;;;;;;2.53;1.00;;;9.50;92.50;;;;;;5014743;28;20544;-62
2023/11/09 07:48:09;;;;;;;2.70;1.10;;;9.60;91.80;;;;;;5012359;28;20038;-63
2023/11/09 07:50:35;;;;;;;2.88;1.10;;;9.60;90.90;;;;;;5017705;28;20075;-62
2023/11/09 07:53:01;;;;;;;1.95;1.10;;;9.60;91.10;;;;;;5015635;28;20049;-62
2023/11/09 07:55:29;;;;;;;4.47;1.17;;;9.60;91.30;;;;;;5014169;28;20485;-63
2023/11/09 07:57:58;;;;;;;2.53;1.30;;;9.60;91.20;;;;;;5016288;28;20070;-63
2023/11/09 08:00:24;;;;;;;4.00;1.33;;;9.70;91.70;;;;;;5013786;28;20104;-63
2023/11/09 08:02:50;;;;;;;4.82;1.13;;;9.70;90.80;;;;;;5015652;28;20032;-63
2023/11/09 08:05:16;;;;;;;3.15;1.25;;;9.80;90.60;;;;;;5015266;28;20033;-62
2023/11/09 08:07:42;;;;;;;2.65;1.48;;;9.90;90.10;;;;;;5013362;28;20058;-63
2023/11/09 08:10:09;;;;;;;2.85;1.42;;;9.90;90.10;;;;;;5017144;28;20140;-63
2023/11/09 08:12:36;;;;;;;1.33;1.00;;;10.00;90.20;;;;;;5011649;28;20018;-63
2023/11/09 08:15:07;;;;;;;2.45;1.20;;;10.10;89.40;;;;;;5020763;28;21008;-64
2023/11/09 08:17:33;;;;;;;3.05;1.20;;;10.10;88.10;;;;;;5013157;28;20030;-63
2023/11/09 08:19:58;;;;;;;15.52;8.18;;;10.20;87.50;;;;;;5010621;28;20049;-63
2023/11/09 08:22:24;;;;;;;39.55;23.05;;;10.40;88.80;;;;;;5015498;28;20029;-63
2023/11/09 08:24:49;;;;;;;13.98;8.98;;;10.50;87.20;;;;;;5012851;28;20020;-63
2023/11/09 08:27:15;;;;;;;3.50;2.30;;;10.70;85.60;;;;;;5015539;28;20039;-63
2023/11/09 08:29:41;;;;;;;18.75;12.93;;;10.90;84.00;;;;;;5015359;28;20079;-63
2023/11/09 08:32:07;;;;;;;6.47;3.70;;;11.20;84.10;;;;;;5014394;28;20512;-63
2023/11/09 08:34:33;;;;;;;5.82;2.08;;;11.40;83.90;;;;;;5017124;28;20476;-63
2023/11/09 08:36:59;;;;;;;3.10;2.33;;;11.60;81.50;;;;;;5012725;28;20107;-63
2023/11/09 08:39:26;;;;;;;30.63;11.13;;;11.60;81.90;;;;;;5018621;28;20389;-63
2023/11/09 08:41:53;;;;;;;44.85;15.18;;;11.70;80.40;;;;;;5003937;28;20516;-63
2023/11/09 08:44:20;;;;;;;14.30;7.30;;;11.60;80.20;;;;;;5013832;28;20289;-63
2023/11/09 08:46:46;;;;;;;8.52;4.00;;;11.60;79.90;;;;;;5015818;28;20235;-63
2023/11/09 08:49:13;;;;;;;7.18;3.70;;;11.50;79.30;;;;;;5012800;28;20591;-63
2023/11/09 08:51:39;;;;;;;3.88;1.95;;;11.50;80.60;;;;;;5016706;28;20498;-63
2023/11/09 08:54:05;;;;;;;4.43;2.30;;;11.50;78.70;;;;;;5016286;28;20120;-63
2023/11/09 08:56:30;;;;;;;3.22;1.98;;;11.50;79.00;;;;;;5014825;28;20014;-64
2023/11/09 08:58:56;;;;;;;3.35;1.70;;;11.60;78.90;;;;;;5017165;28;20556;-64
2023/11/09 09:01:22;;;;;;;4.78;1.63;;;11.70;79.50;;;;;;5015709;28;20448;-64
2023/11/09 09:03:50;;;;;;;2.75;1.85;;;11.70;79.10;;;;;;5012214;28;20030;-63
2023/11/09 09:06:17;;;;;;;4.40;1.80;;;11.70;79.20;;;;;;5013067;28;20085;-63
2023/11/09 09:08:44;;;;;;;2.15;1.17;;;11.80;78.60;;;;;;5013050;28;20531;-62
2023/11/09 09:11:11;;;;;;;1.48;1.23;;;11.80;77.40;;;;;;5012812;28;20512;-63
2023/11/09 09:13:36;;;;;;;3.30;1.50;;;11.80;77.10;;;;;;5014679;28;20497;-65
2023/11/09 09:16:02;;;;;;;2.22;1.40;;;11.80;75.40;;;;;;5012899;28;20068;-63
2023/11/09 09:18:28;;;;;;;2.75;1.17;;;11.80;76.30;;;;;;5015562;28;20029;-63
2023/11/09 09:20:53;;;;;;;3.05;1.20;;;11.80;74.30;;;;;;5016095;28;20053;-63
2023/11/09 09:23:22;;;;;;;2.80;1.10;;;11.90;73.80;;;;;;5014425;28;20490;-63
2023/11/09 09:25:48;;;;;;;4.70;1.13;;;11.90;73.20;;;;;;5012641;28;20139;-63
2023/11/09 09:28:14;;;;;;;2.25;1.92;;;11.90;74.40;;;;;;5011671;28;20596;-62
2023/11/09 09:30:39;;;;;;;2.83;2.10;;;11.90;74.60;;;;;;5014146;28;20038;-63
2023/11/09 09:33:07;;;;;;;1.83;1.25;;;11.90;74.50;;;;;;5015429;28;20025;-63
2023/11/09 09:35:33;;;;;;;4.10;1.45;;;11.80;73.20;;;;;;5011491;28;21140;-63
2023/11/09 09:37:59;;;;;;;6.55;3.67;;;11.90;72.80;;;;;;5013155;28;20112;-63
2023/11/09 09:40:29;;;;;;;5.95;2.63;;;12.00;73.60;;;;;;5012290;28;20029;-63
2023/11/09 09:42:56;;;;;;;15.60;8.45;;;11.90;71.40;;;;;;5009048;28;20057;-63
2023/11/09 09:45:26;;;;;;;7.82;3.05;;;12.00;72.60;;;;;;5017423;28;20021;-63
2023/11/09 09:47:59;;;;;;;7.85;5.13;;;12.00;72.40;;;;;;5012082;28;20045;-62
2023/11/09 09:50:26;;;;;;;7.22;4.68;;;12.00;71.60;;;;;;5013178;28;20121;-63
2023/11/09 09:52:57;;;;;;;10.43;6.07;;;12.00;72.10;;;;;;5015026;28;20029;-62
2023/11/09 09:55:26;;;;;;;10.57;5.82;;;11.90;71.90;;;;;;5012644;28;20045;-63
2023/11/09 09:57:52;;;;;;;10.55;5.85;;;11.90;73.00;;;;;;5011394;28;20061;-63
2023/11/09 10:00:26;;;;;;;5.47;2.55;;;12.00;72.80;;;;;;5011522;28;20022;-63
2023/11/09 10:02:54;;;;;;;4.35;2.88;;;11.90;71.40;;;;;;5012429;28;20148;-63
2023/11/09 10:05:21;;;;;;;2.50;1.90;;;11.90;71.40;;;;;;5017286;28;20381;-63
2023/11/09 10:07:57;;;;;;;2.50;1.65;;;11.90;72.70;;;;;;5015250;28;20025;-63
2023/11/09 10:10:23;;;;;;;5.45;2.13;;;12.00;73.30;;;;;;5010004;28;20390;-63
2023/11/09 10:12:48;;;;;;;4.00;2.15;;;12.00;73.30;;;;;;5011942;28;20029;-63
2023/11/09 10:15:15;;;;;;;3.70;2.15;;;12.00;73.30;;;;;;5012160;28;20034;-63
2023/11/09 10:17:41;;;;;;;3.28;1.95;;;12.00;73.50;;;;;;5012952;28;20156;-63
2023/11/09 10:20:14;;;;;;;4.75;3.22;;;12.00;73.20;;;;;;5006923;28;20112;-63
2023/11/09 10:22:40;;;;;;;8.18;4.00;;;12.10;72.70;;;;;;5010982;28;20026;-63
2023/11/09 10:25:11;;;;;;;4.70;2.65;;;12.10;73.00;;;;;;5013405;28;20037;-63
2023/11/09 10:27:37;;;;;;;4.03;1.55;;;12.20;73.40;;;;;;5017618;28;20033;-63
2023/11/09 10:30:03;;;;;;;2.00;1.50;;;12.20;72.30;;;;;;5010910;28;20030;-63
2023/11/09 10:32:31;;;;;;;4.22;1.67;;;12.20;72.60;;;;;;5014278;28;20037;-63
2023/11/09 10:34:57;;;;;;;2.85;1.60;;;12.20;72.20;;;;;;5011885;28;20034;-62
2023/11/09 10:37:24;;;;;;;2.78;1.55;;;12.20;72.40;;;;;;5012099;28;20080;-63
2023/11/09 10:39:53;;;;;;;1.88;1.20;;;12.20;71.70;;;;;;5009537;28;20378;-63
2023/11/09 10:42:24;;;;;;;2.00;0.95;;;12.20;71.80;;;;;;5005635;28;23121;-63
2023/11/09 10:44:52;;;;;;;1.83;1.10;;;12.30;70.90;;;;;;5009971;28;20022;-63
2023/11/09 10:47:22;;;;;;;2.20;1.45;;;12.40;71.20;;;;;;5012349;28;20022;-63
2023/11/09 10:49:52;;;;;;;2.88;1.27;;;12.40;70.70;;;;;;5016382;28;20034;-63
2023/11/09 10:52:19;;;;;;;7.80;1.52;;;12.40;70.80;;;;;;5014785;28;20511;-63
2023/11/09 10:54:46;;;;;;;3.05;1.00;;;12.50;70.30;;;;;;5016383;28;20045;-63
2023/11/09 10:57:13;;;;;;;5.97;1.65;;;12.60;70.20;;;;;;5017393;28;20026;-63
2023/11/09 10:59:40;;;;;;;1.88;1.17;;;12.70;69.50;;;;;;5013677;28;20132;-63
2023/11/09 11:02:12;;;;;;;3.13;1.00;;;12.70;69.30;;;;;;5018981;28;20029;-63
2023/11/09 11:04:42;;;;;;;2.03;0.88;;;12.80;69.10;;;;;;5014442;28;20124;-62
2023/11/09 11:07:09;;;;;;;2.58;0.95;;;12.90;68.10;;;;;;5017926;28;20014;-63
2023/11/09 11:09:37;;;;;;;2.78;1.35;;;13.00;69.10;;;;;;5015370;28;20104;-64
2023/11/09 11:12:07;;;;;;;2.13;0.98;;;12.90;67.40;;;;;;5014517;28;20018;-63
2023/11/09 11:14:36;;;;;;;2.70;0.93;;;13.00;67.20;;;;;;5017789;28;20128;-63
2023/11/09 11:17:32;;;;;;;3.67;0.98;;;12.90;67.30;;;;;;5017180;28;20129;-63
2023/11/09 11:20:12;;;;;;;2.65;1.10;;;12.90;66.60;;;;;;5016707;28;20032;-64
2023/11/09 11:23:01;;;;;;;1.63;1.23;;;12.90;65.60;;;;;;5018165;28;20436;-71
2023/11/09 11:25:45;;;;;;;2.22;1.27;;;12.90;66.40;;;;;;5012422;28;20030;-73
2023/11/09 11:28:14;;;;;;;1.45;0.77;;;12.90;65.70;;;;;;5008152;28;20037;-73
2023/11/09 11:30:40;;;;;;;4.85;1.17;;;12.90;67.20;;;;;;5013836;28;20030;-72
2023/11/09 11:33:16;;;;;;;2.25;1.17;;;12.80;67.20;;;;;;5018718;28;20524;-73
2023/11/09 11:35:48;;;;;;;;;;;12.90;67.50;;;;;;5017028;28;20052;-73
2023/11/09 11:38:21;;;;;;;1.35;0.93;;;12.90;67.10;;;;;;5015002;28;20336;-74
2023/11/09 11:40:50;;;;;;;1.83;1.20;;;12.90;67.50;;;;;;4996624;28;20254;-73
2023/11/09 11:43:16;;;;;;;1.33;0.90;;;13.00;65.90;;;;;;5017347;28;20512;-73
2023/11/09 11:45:44;;;;;;;1.90;0.90;;;12.90;66.20;;;;;;5016174;28;20029;-73
2023/11/09 11:48:27;;;;;;;1.80;1.10;;;12.90;66.70;;;;;;5012253;28;20030;-73
2023/11/09 11:50:58;;;;;;;1.55;0.90;;;12.90;66.00;;;;;;5012129;28;20022;-74
2023/11/09 11:53:30;;;;;;;2.28;0.77;;;12.80;66.50;;;;;;5013061;28;20028;-73
2023/11/09 11:56:13;;;;;;;2.60;1.42;;;12.80;67.30;;;;;;5014167;28;20030;-74
2023/11/09 11:58:52;;;;;;;2.85;0.80;;;12.70;66.50;;;;;;5017205;28;20040;-73
2023/11/09 12:01:27;;;;;;;2.28;1.10;;;12.70;66.00;;;;;;5006419;28;20060;-73
2023/11/09 12:03:54;;;;;;;1.13;0.80;;;12.70;66.50;;;;;;5007820;28;20505;-72
2023/11/09 12:06:22;;;;;;;2.22;1.00;;;12.70;67.00;;;;;;5017350;28;20025;-72
2023/11/09 12:08:53;;;;;;;2.28;0.85;;;12.70;66.90;;;;;;5014138;28;20041;-70
2023/11/09 12:11:19;;;;;;;4.72;1.40;;;12.70;67.40;;;;;;5013416;28;20040;-72
2023/11/09 12:13:46;;;;;;;2.13;1.15;;;12.70;67.20;;;;;;5014523;28;20434;-72
2023/11/09 12:16:15;;;;;;;2.42;1.30;;;12.70;67.90;;;;;;5018798;28;20095;-73
2023/11/09 12:18:41;;;;;;;1.35;0.90;;;12.70;67.70;;;;;;5011511;28;20545;-72
2023/11/09 12:21:08;;;;;;;3.88;1.00;;;12.70;67.50;;;;;;5011884;28;20494;-72
2023/11/09 12:23:33;;;;;;;2.65;0.90;;;12.70;67.20;;;;;;5015860;28;20317;-72
2023/11/09 12:25:59;;;;;;;2.30;1.30;;;12.80;66.00;;;;;;5014455;28;20048;-73
2023/11/09 12:28:24;;;;;;;1.33;0.88;;;12.80;66.70;;;;;;5013199;28;20456;-72
2023/11/09 12:30:50;;;;;;;2.97;0.90;;;12.80;66.60;;;;;;5015796;28;20024;-72
2023/11/09 12:33:16;;;;;;;2.83;0.90;;;12.80;66.80;;;;;;5014608;28;20252;-72
2023/11/09 12:36:05;;;;;;;4.45;1.45;;;12.90;66.20;;;;;;5012764;28;20117;-72
2023/11/09 12:38:33;;;;;;;4.55;2.95;;;12.80;66.40;;;;;;5006200;28;20088;-72
2023/11/09 12:41:01;;;;;;;10.55;5.95;;;12.80;66.80;;;;;;5014646;28;20028;-72
2023/11/09 12:43:35;;;;;;;17.38;11.38;;;12.80;67.00;;;;;;5015539;28;20022;-72
2023/11/09 12:46:08;;;;;;;16.60;10.70;;;12.70;66.50;;;;;;5009369;28;20065;-72
2023/11/09 12:48:44;;;;;;;14.73;8.75;;;12.70;66.90;;;;;;5016113;28;20114;-72
2023/11/09 12:51:15;;;;;;;13.50;8.25;;;12.70;67.10;;;;;;5013252;28;20494;-71
2023/11/09 12:53:42;;;;;;;18.48;11.40;;;12.70;67.40;;;;;;5014265;28;20030;-71
2023/11/09 12:56:08;;;;;;;7.32;5.20;;;12.70;67.50;;;;;;5012381;28;20033;-72
2023/11/09 12:58:40;;;;;;;4.13;2.10;;;12.60;68.00;;;;;;5016378;28;20032;-72